Terminal Aerodrome Forecast
Issued by NWS Hastings, NE

Home | Current Version | Previous Version | Text Only | Print | Product List | Glossary On
Versions: 1 2 3 4 5 6 7 8 9 10 11 12 13 14 15 16 17 18 19 20
000
FTUS43 KGID 260520
TAFGRI
TAF
KGRI 260520Z 2606/2706 10007KT P6SM SKC
     FM260900 12007KT 5SM BR SCT012
     FM261100 13006KT 3SM BR SCT006 OVC012
     FM261600 15005KT P6SM SCT012
     FM262200 22006KT P6SM SCT250=

USA.gov is the U.S. government's official web portal to all federal, state and local government web resources and services.